Observation data for Floydada on 08/13/2019      Previous  Date       Current Mesonet Observations  Soil Data  Daily Summary Page  Observations in Plain Language
KFLS 130500Z 02011KT 27/17 A2995 RMK A01 T02650166  RH  056%=      5-min Rain = 0
KFLS 130505Z 01011KT 26/17 A2996 RMK A01 T02640168  RH  057%=      5-min Rain = 0
KFLS 130510Z 02012G18KT 26/17 A2995 RMK A01 T02620169  RH  058%=      5-min Rain = 0
KFLS 130515Z 01012KT 26/17 A2996 RMK A01 T02580172  RH  060%=      5-min Rain = 0
KFLS 130520Z 02013KT 26/17 A2996 RMK A01 T02570172  RH  061%=      5-min Rain = 0
KFLS 130525Z 02011G19KT 25/17 A2996 RMK A01 T02520174  RH  063%=      5-min Rain = 0
KFLS 130530Z 03013KT 25/18 A2996 RMK A01 T02490175  RH  065%=      5-min Rain = 0
KFLS 130535Z 03016G24KT 25/18 A2997 RMK A01 T02450177  RH  067%=      5-min Rain = 0
KFLS 130540Z 03017G24KT 24/18 A2997 RMK A01 T02420179  RH  070%=      5-min Rain = 0
KFLS 130545Z 03018G25KT 24/18 A2998 RMK A01 T02370179  RH  072%=      5-min Rain = 0
KFLS 130550Z 03019G26KT 23/18 A2998 RMK A01 T02330179  RH  073%=      5-min Rain = 0
KFLS 130555Z 03020G30KT 23/18 A2998 RMK A01 T02320179  RH  074%=      5-min Rain = 0
KFLS 130600Z 03018G25KT 23/18 A2999 RMK A01 T02310179  RH  074%=      5-min Rain = 0
KFLS 130605Z 03020G28KT 23/18 A2999 RMK A01 T02310179  RH  074%=      5-min Rain = 0
KFLS 130610Z 03021G30KT 23/18 A2999 RMK A01 T02300179  RH  075%=      5-min Rain = 0
KFLS 130615Z 03021G27KT 23/18 A30 RMK A01 T02280180  RH  076%=      5-min Rain = 0
KFLS 130620Z 03020G28KT 23/18 A2999 RMK A01 T02260181  RH  078%=      5-min Rain = 0
KFLS 130625Z 04021G30KT 23/18 A2999 RMK A01 T02250181  RH  078%=      5-min Rain = 0
KFLS 130630Z 04019G27KT 22/18 A30 RMK A01 T02230182  RH  079%=      5-min Rain = 0
KFLS 130635Z 04021G26KT 22/18 A2999 RMK A01 T02220182  RH  080%=      5-min Rain = 0
KFLS 130640Z 04022G27KT 22/18 A2999 RMK A01 T02210183  RH  081%=      5-min Rain = 0
KFLS 130645Z 04019G26KT 22/18 A30 RMK A01 T02190183  RH  082%=      5-min Rain = 0
KFLS 130650Z 04020G28KT 22/18 A2999 RMK A01 T02180184  RH  083%=      5-min Rain = 0
KFLS 130655Z 04020G26KT 22/18 A2999 RMK A01 T02170184  RH  084%=      5-min Rain = 0
KFLS 130700Z 04021G28KT 22/18 A2999 RMK A01 T02160184  RH  084%=      5-min Rain = 0
KFLS 130705Z 04020G27KT 21/18 A2999 RMK A01 T02140184  RH  085%=      5-min Rain = 0
KFLS 130710Z 04019G26KT 21/18 A2999 RMK A01 T02120184  RH  086%=      5-min Rain = 0
KFLS 130715Z 04019KT 21/18 A2999 RMK A01 T02110184  RH  087%=      5-min Rain = 0
KFLS 130720Z 05017G24KT 21/18 A2999 RMK A01 T02110184  RH  087%=      5-min Rain = 0
KFLS 130725Z 05018KT 21/18 A2998 RMK A01 T02110184  RH  087%=      5-min Rain = 0
KFLS 130730Z 05018G23KT 21/18 A2998 RMK A01 T02110184  RH  087%=      5-min Rain = 0
KFLS 130735Z 05017KT 21/18 A2998 RMK A01 T02110183  RH  086%=      5-min Rain = 0
KFLS 130740Z 05016G21KT 21/18 A2998 RMK A01 T02110182  RH  086%=      5-min Rain = 0
KFLS 130745Z 05015G21KT 21/18 A2998 RMK A01 T02110181  RH  085%=      5-min Rain = 0
KFLS 130750Z 05016G21KT 21/18 A2998 RMK A01 T02100181  RH  085%=      5-min Rain = 0
KFLS 130755Z 05017G23KT 21/18 A2998 RMK A01 T02100181  RH  086%=      5-min Rain = 0
KFLS 130800Z 05018G23KT 21/18 A2998 RMK A01 T02090181  RH  086%=      5-min Rain = 0
KFLS 130805Z 06016G21KT 21/18 A2998 RMK A01 T02090181  RH  087%=      5-min Rain = 0
KFLS 130810Z 06016G22KT 21/18 A2998 RMK A01 T02080182  RH  087%=      5-min Rain = 0
KFLS 130815Z 06017G22KT 21/18 A2999 RMK A01 T02080183  RH  088%=      5-min Rain = 0
KFLS 130820Z 06016KT 21/18 A2999 RMK A01 T02070183  RH  088%=      5-min Rain = 0
KFLS 130825Z 06016KT 21/18 A2999 RMK A01 T02070184  RH  089%=      5-min Rain = 0
KFLS 130830Z 06016G23KT 21/18 A2999 RMK A01 T02080184  RH  088%=      5-min Rain = 0
KFLS 130835Z 06016G23KT 21/18 A2999 RMK A01 T02080183  RH  088%=      5-min Rain = 0
KFLS 130840Z 06015G21KT 21/18 A2999 RMK A01 T02070184  RH  089%=      5-min Rain = 0
KFLS 130845Z 06016G21KT 21/18 A2999 RMK A01 T02070184  RH  089%=      5-min Rain = 0
KFLS 130850Z 05014G20KT 21/18 A30 RMK A01 T02060184  RH  089%=      5-min Rain = 0
KFLS 130855Z 06015G21KT 21/18 A30 RMK A01 T02070184  RH  089%=      5-min Rain = 0
KFLS 130900Z 06015G20KT 21/18 A30 RMK A01 T02070184  RH  089%=      5-min Rain = 0
KFLS 130905Z 06016G22KT 21/18 A30 RMK A01 T02070184  RH  089%=      5-min Rain = 0
KFLS 130910Z 06016G21KT 21/18 A30 RMK A01 T02070183  RH  089%=      5-min Rain = 0
KFLS 130915Z 06017G23KT 21/18 A30 RMK A01 T02070183  RH  088%=      5-min Rain = 0
KFLS 130920Z 06014G22KT 21/18 A30 RMK A01 T02060182  RH  088%=      5-min Rain = 0
KFLS 130925Z 06015G20KT 21/18 A30 RMK A01 T02060182  RH  089%=      5-min Rain = 0
KFLS 130930Z 06014G19KT 21/18 A30 RMK A01 T02060182  RH  089%=      5-min Rain = 0
KFLS 130935Z 05014KT 21/18 A30 RMK A01 T02050182  RH  089%=      5-min Rain = 0
KFLS 130940Z 05014KT 21/18 A30 RMK A01 T02050182  RH  089%=      5-min Rain = 0
KFLS 130945Z 05015G20KT 21/18 A30 RMK A01 T02050182  RH  089%=      5-min Rain = 0
KFLS 130950Z 05014G21KT 21/18 A30 RMK A01 T02050182  RH  089%=      5-min Rain = 0
KFLS 130955Z 05013KT 20/18 A30 RMK A01 T02040182  RH  089%=      5-min Rain = 0
KFLS 131000Z 05014G19KT 20/18 A30 RMK A01 T02040183  RH  090%=      5-min Rain = 0
KFLS 131005Z 05015G20KT 21/18 A3001 RMK A01 T02050183  RH  090%=      5-min Rain = 0
KFLS 131010Z 05016G21KT 21/18 A3001 RMK A01 T02050184  RH  090%=      5-min Rain = 0
KFLS 131015Z 05016KT 21/18 A30 RMK A01 T02050183  RH  090%=      5-min Rain = 0
KFLS 131020Z 05016G21KT 21/18 A3001 RMK A01 T02050183  RH  090%=      5-min Rain = 0
KFLS 131025Z 06013KT 20/18 A3001 RMK A01 T02040183  RH  090%=      5-min Rain = 0
KFLS 131030Z 06014KT 20/18 A3001 RMK A01 T02040183  RH  090%=      5-min Rain = 0
KFLS 131035Z 07015G20KT 20/18 A30 RMK A01 T02040183  RH  090%=      5-min Rain = 0
KFLS 131040Z 07014KT 20/18 A30 RMK A01 T02040183  RH  090%=      5-min Rain = 0
KFLS 131045Z 07015G21KT 21/18 A30 RMK A01 T02050183  RH  090%=      5-min Rain = 0
KFLS 131050Z 07016KT 21/18 A30 RMK A01 T02050183  RH  089%=      5-min Rain = 0
KFLS 131055Z 07017KT 21/18 A30 RMK A01 T02060183  RH  089%=      5-min Rain = 0
KFLS 131100Z 07014G19KT 21/18 A30 RMK A01 T02060183  RH  089%=      5-min Rain = 0
KFLS 131105Z 07014G19KT 21/18 A30 RMK A01 T02060182  RH  088%=      5-min Rain = 0
KFLS 131110Z 07013G19KT 21/18 A30 RMK A01 T02070182  RH  088%=      5-min Rain = 0
KFLS 131115Z 07014KT 21/18 A3001 RMK A01 T02070182  RH  088%=      5-min Rain = 0
KFLS 131120Z 07014G20KT 21/18 A3001 RMK A01 T02070183  RH  088%=      5-min Rain = 0
KFLS 131125Z 07014G19KT 21/18 A3001 RMK A01 T02070183  RH  088%=      5-min Rain = 0
KFLS 131130Z 08013KT 21/18 A3001 RMK A01 T02070182  RH  088%=      5-min Rain = 0
KFLS 131135Z 08012G18KT 21/18 A3001 RMK A01 T02070182  RH  088%=      5-min Rain = 0
KFLS 131140Z 08014KT 21/18 A3001 RMK A01 T02080182  RH  087%=      5-min Rain = 0
KFLS 131145Z 08011KT 21/18 A3001 RMK A01 T02070182  RH  088%=      5-min Rain = 0
KFLS 131150Z 08009KT 21/18 A3002 RMK A01 T02060182  RH  088%=      5-min Rain = 0
KFLS 131155Z 07009KT 21/18 A3003 RMK A01 T02060182  RH  088%=      5-min Rain = 0
KFLS 131200Z 06007KT 21/18 A3003 RMK A01 T02060181  RH  088%=      5-min Rain = 0
KFLS 131205Z 07007KT 21/18 A3003 RMK A01 T02050181  RH  088%=      5-min Rain = 0
KFLS 131210Z 07008KT 21/18 A3003 RMK A01 T02050181  RH  088%=      5-min Rain = 0
KFLS 131215Z 07009KT 21/18 A3003 RMK A01 T02060181  RH  088%=      5-min Rain = 0
KFLS 131220Z 07010KT 21/18 A3003 RMK A01 T02070182  RH  088%=      5-min Rain = 0
KFLS 131225Z 08009KT 21/18 A3003 RMK A01 T02070182  RH  087%=      5-min Rain = 0
KFLS 131230Z 08009KT 21/18 A3004 RMK A01 T02080182  RH  087%=      5-min Rain = 0
KFLS 131235Z 07010KT 21/18 A3004 RMK A01 T02090182  RH  087%=      5-min Rain = 0
KFLS 131240Z 07009KT 21/18 A3004 RMK A01 T02100183  RH  086%=      5-min Rain = 0
KFLS 131245Z 08009KT 21/18 A3004 RMK A01 T02120183  RH  086%=      5-min Rain = 0
KFLS 131250Z 08009KT 21/18 A3004 RMK A01 T02140183  RH  085%=      5-min Rain = 0
KFLS 131255Z 08010KT 22/18 A3004 RMK A01 T02150183  RH  084%=      5-min Rain = 0
KFLS 131300Z 08009KT 22/18 A3004 RMK A01 T02160183  RH  084%=      5-min Rain = 0
KFLS 131305Z 08010KT 22/18 A3004 RMK A01 T02190184  RH  082%=      5-min Rain = 0
KFLS 131310Z 08010KT 22/18 A3005 RMK A01 T02220183  RH  081%=      5-min Rain = 0
KFLS 131315Z 08010KT 23/18 A3005 RMK A01 T02260183  RH  079%=      5-min Rain = 0
KFLS 131320Z 07010KT 23/18 A3005 RMK A01 T02280182  RH  077%=      5-min Rain = 0
KFLS 131325Z 08009KT 23/18 A3006 RMK A01 T02310182  RH  076%=      5-min Rain = 0
KFLS 131330Z 08010KT 23/18 A3006 RMK A01 T02330182  RH  075%=      5-min Rain = 0
KFLS 131335Z 09011KT 24/18 A3006 RMK A01 T02360182  RH  073%=      5-min Rain = 0
KFLS 131340Z 08013KT 24/18 A3006 RMK A01 T02370180  RH  072%=      5-min Rain = 0
KFLS 131345Z 08013KT 24/18 A3006 RMK A01 T02400178  RH  070%=      5-min Rain = 0
KFLS 131350Z 08014KT 24/18 A3006 RMK A01 T02420178  RH  069%=      5-min Rain = 0
KFLS 131355Z 08013KT 24/18 A3007 RMK A01 T02440178  RH  069%=      5-min Rain = 0
KFLS 131400Z 08012KT 25/18 A3007 RMK A01 T02470178  RH  067%=      5-min Rain = 0
KFLS 131405Z 09012KT 25/18 A3006 RMK A01 T02490178  RH  066%=      5-min Rain = 0
KFLS 131410Z 09012G17KT 25/18 A3007 RMK A01 T02510177  RH  065%=      5-min Rain = 0
KFLS 131415Z 09012KT 25/18 A3007 RMK A01 T02540177  RH  064%=      5-min Rain = 0
KFLS 131420Z 09012G17KT 26/18 A3007 RMK A01 T02600177  RH  062%=      5-min Rain = 0
KFLS 131425Z 09014G19KT 26/18 A3007 RMK A01 T02580175  RH  062%=      5-min Rain = 0
KFLS 131430Z 09015KT 26/17 A3007 RMK A01 T02600174  RH  060%=      5-min Rain = 0
KFLS 131435Z 09015G20KT 26/17 A3007 RMK A01 T02630172  RH  059%=      5-min Rain = 0
KFLS 131440Z 08015G20KT 27/17 A3007 RMK A01 T02650172  RH  058%=      5-min Rain = 0
KFLS 131445Z 09014G20KT 27/17 A3007 RMK A01 T02690171  RH  056%=      5-min Rain = 0
KFLS 131450Z 08013G19KT 27/17 A3007 RMK A01 T02730173  RH  055%=      5-min Rain = 0
KFLS 131455Z 09014KT 27/17 A3007 RMK A01 T02730173  RH  055%=      5-min Rain = 0
KFLS 131500Z 09013G18KT 28/17 A3007 RMK A01 T02770173  RH  054%=      5-min Rain = 0
KFLS 131505Z 07014G20KT 28/17 A3007 RMK A01 T02770172  RH  054%=      5-min Rain = 0
KFLS 131510Z 07015KT 27/17 A3008 RMK A01 T02730173  RH  056%=      5-min Rain = 0
KFLS 131515Z 08012KT 27/17 A3008 RMK A01 T02730174  RH  056%=      5-min Rain = 0
KFLS 131520Z 06013G18KT 27/18 A3008 RMK A01 T02720175  RH  057%=      5-min Rain = 0
KFLS 131525Z 07012G17KT 28/18 A3008 RMK A01 T02750176  RH  056%=      5-min Rain = 0
KFLS 131530Z 07013KT 28/18 A3008 RMK A01 T02750175  RH  056%=      5-min Rain = 0
KFLS 131535Z 07013KT 27/18 A3009 RMK A01 T02740175  RH  056%=      5-min Rain = 0
KFLS 131540Z 08014G20KT 28/18 A3009 RMK A01 T02770175  RH  055%=      5-min Rain = 0
KFLS 131545Z 07012KT 28/18 A3009 RMK A01 T02790177  RH  055%=      5-min Rain = 0
KFLS 131550Z 06013KT 28/18 A3009 RMK A01 T02790177  RH  055%=      5-min Rain = 0
KFLS 131555Z 06012G17KT 28/18 A3009 RMK A01 T02820178  RH  055%=      5-min Rain = 0
KFLS 131600Z 06013KT 28/18 A3009 RMK A01 T02830178  RH  054%=      5-min Rain = 0
KFLS 131605Z 07012KT 28/18 A3009 RMK A01 T02830178  RH  054%=      5-min Rain = 0
KFLS 131610Z 07013KT 28/18 A3009 RMK A01 T02820177  RH  054%=      5-min Rain = 0
KFLS 131615Z 07012KT 29/18 A301 RMK A01 T02850178  RH  054%=      5-min Rain = 0
KFLS 131620Z 07011KT 29/18 A301 RMK A01 T02900179  RH  052%=      5-min Rain = 0
KFLS 131625Z 06013KT 29/18 A301 RMK A01 T02890177  RH  052%=      5-min Rain = 0
KFLS 131630Z 07013G20KT 29/18 A301 RMK A01 T02850175  RH  052%=      5-min Rain = 0
KFLS 131635Z 09013KT 29/17 A301 RMK A01 T02860174  RH  052%=      5-min Rain = 0
KFLS 131640Z 08012KT 29/18 A301 RMK A01 T02900175  RH  051%=      5-min Rain = 0
KFLS 131645Z 07012G18KT 29/18 A301 RMK A01 T02910176  RH  051%=      5-min Rain = 0
KFLS 131650Z 08011G17KT 29/17 A301 RMK A01 T02920173  RH  050%=      5-min Rain = 0
KFLS 131655Z 08012G18KT 30/17 A3011 RMK A01 T02980172  RH  048%=      5-min Rain = 0
KFLS 131700Z 07011KT 30/17 A3011 RMK A01 T03000172  RH  048%=      5-min Rain = 0
KFLS 131705Z 07011KT 30/17 A301 RMK A01 T03010172  RH  047%=      5-min Rain = 0
KFLS 131710Z 07011G16KT 30/17 A301 RMK A01 T03040173  RH  047%=      5-min Rain = 0
KFLS 131715Z 06011G16KT 31/17 A301 RMK A01 T03050172  RH  046%=      5-min Rain = 0
KFLS 131720Z 06013KT 30/17 A301 RMK A01 T03020172  RH  047%=      5-min Rain = 0
KFLS 131725Z 06012G17KT 30/17 A301 RMK A01 T03010172  RH  047%=      5-min Rain = 0
KFLS 131730Z 06012G17KT 30/17 A301 RMK A01 T03040170  RH  046%=      5-min Rain = 0
KFLS 131735Z 07010G17KT 30/17 A301 RMK A01 T03040172  RH  046%=      5-min Rain = 0
KFLS 131740Z 05010G16KT 31/17 A301 RMK A01 T03070172  RH  045%=      5-min Rain = 0
KFLS 131745Z 06012G17KT 31/17 A301 RMK A01 T03060171  RH  045%=      5-min Rain = 0
KFLS 131750Z 06011G17KT 31/17 A301 RMK A01 T03070171  RH  045%=      5-min Rain = 0
KFLS 131755Z 06012G18KT 31/17 A301 RMK A01 T03080171  RH  045%=      5-min Rain = 0
KFLS 131800Z 04013KT 31/17 A301 RMK A01 T03120170  RH  044%=      5-min Rain = 0
KFLS 131805Z 05011KT 30/17 A301 RMK A01 T03040172  RH  046%=      5-min Rain = 0
KFLS 131810Z 05011G17KT 31/17 A301 RMK A01 T03100169  RH  044%=      5-min Rain = 0
KFLS 131815Z 04013G19KT 31/17 A301 RMK A01 T03140168  RH  043%=      5-min Rain = 0
KFLS 131820Z 06009KT 31/17 A301 RMK A01 T03130170  RH  043%=      5-min Rain = 0
KFLS 131825Z 08010G17KT 32/17 A301 RMK A01 T03170169  RH  042%=      5-min Rain = 0
KFLS 131830Z 07011G18KT 32/17 A301 RMK A01 T03210168  RH  041%=      5-min Rain = 0
KFLS 131835Z 06012KT 32/17 A301 RMK A01 T03200165  RH  040%=      5-min Rain = 0
KFLS 131840Z 07012G19KT 31/17 A301 RMK A01 T03140165  RH  042%=      5-min Rain = 0
KFLS 131845Z 07010G16KT 32/17 A301 RMK A01 T03190166  RH  041%=      5-min Rain = 0
KFLS 131850Z 05012G18KT 32/17 A301 RMK A01 T03240166  RH  040%=      5-min Rain = 0
KFLS 131855Z 05013G19KT 32/17 A301 RMK A01 T03210165  RH  040%=      5-min Rain = 0
KFLS 131900Z 06012G17KT 32/16 A3009 RMK A01 T03240163  RH  039%=      5-min Rain = 0
KFLS 131905Z 06010G15KT 33/16 A3009 RMK A01 T03250164  RH  039%=      5-min Rain = 0
KFLS 131910Z 05009G16KT 33/16 A3009 RMK A01 T03270164  RH  039%=      5-min Rain = 0
KFLS 131915Z 04010G15KT 33/16 A3009 RMK A01 T03300162  RH  037%=      5-min Rain = 0
KFLS 131920Z 05012G20KT 33/16 A3009 RMK A01 T03340163  RH  037%=      5-min Rain = 0
KFLS 131925Z 04013G18KT 33/16 A3009 RMK A01 T03320160  RH  036%=      5-min Rain = 0
KFLS 131930Z 06011G18KT 33/16 A3009 RMK A01 T03310161  RH  037%=      5-min Rain = 0
KFLS 131935Z 07010G18KT 33/16 A3009 RMK A01 T03280157  RH  037%=      5-min Rain = 0
KFLS 131940Z 06012G18KT 33/16 A3009 RMK A01 T03290158  RH  037%=      5-min Rain = 0
KFLS 131945Z 05013G20KT 33/16 A3009 RMK A01 T03320156  RH  036%=      5-min Rain = 0
KFLS 131950Z 06013G19KT 33/16 A3009 RMK A01 T03310158  RH  036%=      5-min Rain = 0
KFLS 131955Z 06008G21KT 33/16 A3008 RMK A01 T03300159  RH  037%=      5-min Rain = 0
KFLS 132000Z 05013KT 34/16 A3008 RMK A01 T03360158  RH  035%=      5-min Rain = 0
KFLS 132005Z 04013G22KT 34/16 A3008 RMK A01 T03350155  RH  035%=      5-min Rain = 0
KFLS 132010Z 04014G21KT 34/16 A3008 RMK A01 T03350159  RH  036%=      5-min Rain = 0
KFLS 132015Z 05015G20KT 34/16 A3008 RMK A01 T03350156  RH  035%=      5-min Rain = 0
KFLS 132020Z 05012G21KT 34/16 A3007 RMK A01 T03390155  RH  034%=      5-min Rain = 0
KFLS 132025Z 07013G19KT 34/15 A3007 RMK A01 T03360154  RH  034%=      5-min Rain = 0
KFLS 132030Z 09010KT 34/16 A3007 RMK A01 T03350155  RH  035%=      5-min Rain = 0
KFLS 132035Z 06013G20KT 34/15 A3007 RMK A01 T03370154  RH  034%=      5-min Rain = 0
KFLS 132040Z 05012G17KT 33/15 A3007 RMK A01 T03300153  RH  035%=      5-min Rain = 0
KFLS 132045Z 05013G20KT 34/15 A3007 RMK A01 T03370154  RH  034%=      5-min Rain = 0
KFLS 132050Z 04012G18KT 34/15 A3007 RMK A01 T03360154  RH  034%=      5-min Rain = 0
KFLS 132055Z 05011G16KT 34/15 A3007 RMK A01 T03380151  RH  033%=      5-min Rain = 0
KFLS 132100Z 07011G16KT 34/15 A3007 RMK A01 T03360147  RH  033%=      5-min Rain = 0
KFLS 132105Z 06011G19KT 34/15 A3007 RMK A01 T03380149  RH  033%=      5-min Rain = 0
KFLS 132110Z 08009G15KT 34/15 A3006 RMK A01 T03370152  RH  034%=      5-min Rain = 0
KFLS 132115Z 08010KT 34/15 A3006 RMK A01 T03380151  RH  033%=      5-min Rain = 0
KFLS 132120Z 07012G19KT 33/15 A3006 RMK A01 T03330152  RH  034%=      5-min Rain = 0
KFLS 132125Z 06013G18KT 34/15 A3006 RMK A01 T03360150  RH  033%=      5-min Rain = 0
KFLS 132130Z 07013KT 34/15 A3006 RMK A01 T03410147  RH  032%=      5-min Rain = 0
KFLS 132135Z 08010G17KT 34/15 A3006 RMK A01 T03360147  RH  033%=      5-min Rain = 0
KFLS 132140Z 05011G17KT 34/15 A3006 RMK A01 T03370145  RH  032%=      5-min Rain = 0
KFLS 132145Z 08012G18KT 34/15 A3006 RMK A01 T03380150  RH  033%=      5-min Rain = 0
KFLS 132150Z 08011G19KT 34/15 A3005 RMK A01 T03390148  RH  033%=      5-min Rain = 0
KFLS 132155Z 08009G14KT 34/15 A3005 RMK A01 T03350149  RH  033%=      5-min Rain = 0
KFLS 132200Z 07011G16KT 34/15 A3005 RMK A01 T03390152  RH  033%=      5-min Rain = 0
KFLS 132205Z 08009G15KT 33/15 A3005 RMK A01 T03330149  RH  034%=      5-min Rain = 0
KFLS 132210Z 08011G17KT 33/15 A3005 RMK A01 T03340151  RH  034%=      5-min Rain = 0
KFLS 132215Z 07009G16KT 33/15 A3005 RMK A01 T03340150  RH  034%=      5-min Rain = 0
KFLS 132220Z 07010G15KT 34/15 A3005 RMK A01 T03360151  RH  034%=      5-min Rain = 0
KFLS 132225Z 10010KT 34/15 A3005 RMK A01 T03370149  RH  033%=      5-min Rain = 0
KFLS 132230Z 07011G17KT 34/15 A3005 RMK A01 T03360149  RH  033%=      5-min Rain = 0
KFLS 132235Z 08011KT 33/15 A3004 RMK A01 T03340148  RH  033%=      5-min Rain = 0
KFLS 132240Z 08009G14KT 33/15 A3004 RMK A01 T03330149  RH  034%=      5-min Rain = 0
KFLS 132245Z 08011G16KT 33/15 A3004 RMK A01 T03330152  RH  035%=      5-min Rain = 0
KFLS 132250Z 09012G17KT 33/15 A3004 RMK A01 T03330152  RH  035%=      5-min Rain = 0
KFLS 132255Z 07011G17KT 33/15 A3004 RMK A01 T03300153  RH  035%=      5-min Rain = 0
KFLS 132300Z 06011KT 33/15 A3004 RMK A01 T03290152  RH  035%=      5-min Rain = 0
KFLS 132305Z 08012G17KT 33/15 A3004 RMK A01 T03320149  RH  034%=      5-min Rain = 0
KFLS 132310Z 07009KT 33/15 A3004 RMK A01 T03290149  RH  035%=      5-min Rain = 0
KFLS 132315Z 06010G15KT 32/15 A3004 RMK A01 T03240150  RH  036%=      5-min Rain = 0
KFLS 132320Z 07010KT 33/15 A3004 RMK A01 T03310152  RH  035%=      5-min Rain = 0
KFLS 132325Z 06008G15KT 33/15 A3004 RMK A01 T03310153  RH  035%=      5-min Rain = 0
KFLS 132330Z 05011KT 33/15 A3004 RMK A01 T03290147  RH  034%=      5-min Rain = 0
KFLS 132335Z 07012KT 33/15 A3005 RMK A01 T03250147  RH  035%=      5-min Rain = 0
KFLS 132340Z 07009KT 33/15 A3005 RMK A01 T03250146  RH  035%=      5-min Rain = 0
KFLS 132345Z 09008KT 32/15 A3004 RMK A01 T03240148  RH  035%=      5-min Rain = 0
KFLS 132350Z 06012KT 33/15 A3004 RMK A01 T03250149  RH  035%=      5-min Rain = 0
KFLS 132355Z 06009KT 32/15 A3005 RMK A01 T03240150  RH  036%=      5-min Rain = 0
KFLS 140000Z 05008KT 32/15 A3005 RMK A01 T03210148  RH  036%=      5-min Rain = 0
KFLS 140005Z 07010KT 32/15 A3004 RMK A01 T03200150  RH  037%=      5-min Rain = 0
KFLS 140010Z 07009KT 32/15 A3004 RMK A01 T03190149  RH  036%=      5-min Rain = 0
KFLS 140015Z 08010KT 32/15 A3004 RMK A01 T03190147  RH  036%=      5-min Rain = 0
KFLS 140020Z 09010KT 32/15 A3004 RMK A01 T03170145  RH  036%=      5-min Rain = 0
KFLS 140025Z 07011KT 32/15 A3005 RMK A01 T03160153  RH  038%=      5-min Rain = 0
KFLS 140030Z 06009KT 31/16 A3005 RMK A01 T03130159  RH  041%=      5-min Rain = 0
KFLS 140035Z 06010G16KT 31/16 A3005 RMK A01 T03120158  RH  041%=      5-min Rain = 0
KFLS 140040Z 07010KT 31/16 A3005 RMK A01 T03110156  RH  040%=      5-min Rain = 0
KFLS 140045Z 06011KT 31/16 A3005 RMK A01 T03080157  RH  041%=      5-min Rain = 0
KFLS 140050Z 05010KT 31/16 A3005 RMK A01 T03060158  RH  042%=      5-min Rain = 0
KFLS 140055Z 06009KT 30/16 A3006 RMK A01 T03040159  RH  042%=      5-min Rain = 0
KFLS 140100Z 05010KT 30/16 A3006 RMK A01 T03020161  RH  044%=      5-min Rain = 0
KFLS 140105Z 05009KT 30/16 A3006 RMK A01 T03000161  RH  044%=      5-min Rain = 0
KFLS 140110Z 06010KT 30/16 A3006 RMK A01 T02970162  RH  045%=      5-min Rain = 0
KFLS 140115Z 05010KT 30/16 A3007 RMK A01 T02950162  RH  046%=      5-min Rain = 0
KFLS 140120Z 05009KT 29/16 A3007 RMK A01 T02920163  RH  047%=      5-min Rain = 0
KFLS 140125Z 05009KT 29/16 A3007 RMK A01 T02900163  RH  047%=      5-min Rain = 0
KFLS 140130Z 05009KT 29/16 A3007 RMK A01 T02880163  RH  048%=      5-min Rain = 0
KFLS 140135Z 05008KT 28/16 A3007 RMK A01 T02830164  RH  049%=      5-min Rain = 0
KFLS 140140Z 05009KT 28/17 A3007 RMK A01 T02830165  RH  050%=      5-min Rain = 0
KFLS 140145Z 05009KT 28/17 A3008 RMK A01 T02820165  RH  050%=      5-min Rain = 0
KFLS 140150Z 05008KT 28/17 A3008 RMK A01 T02800166  RH  051%=      5-min Rain = 0
KFLS 140155Z 05007KT 28/17 A3008 RMK A01 T02760166  RH  052%=      5-min Rain = 0
KFLS 140200Z 05008KT 27/17 A3008 RMK A01 T02740167  RH  053%=      5-min Rain = 0
KFLS 140205Z 05008KT 27/17 A3009 RMK A01 T02730168  RH  054%=      5-min Rain = 0
KFLS 140210Z 06008KT 27/17 A3009 RMK A01 T02730168  RH  054%=      5-min Rain = 0
KFLS 140215Z 06008KT 27/17 A3009 RMK A01 T02720168  RH  054%=      5-min Rain = 0
KFLS 140220Z 05007KT 27/17 A3009 RMK A01 T02690167  RH  055%=      5-min Rain = 0
KFLS 140225Z 05007KT 27/17 A301 RMK A01 T02660167  RH  056%=      5-min Rain = 0
KFLS 140230Z 05007KT 27/17 A301 RMK A01 T02650168  RH  056%=      5-min Rain = 0
KFLS 140235Z 05007KT 27/17 A3011 RMK A01 T02650168  RH  057%=      5-min Rain = 0
KFLS 140240Z 05007KT 26/17 A3011 RMK A01 T02620168  RH  057%=      5-min Rain = 0
KFLS 140245Z 05008KT 26/17 A3011 RMK A01 T02620168  RH  058%=      5-min Rain = 0
KFLS 140250Z 05007KT 26/17 A3012 RMK A01 T02630169  RH  057%=      5-min Rain = 0
KFLS 140255Z 05006KT 26/17 A3012 RMK A01 T02620169  RH  058%=      5-min Rain = 0
KFLS 140300Z 06007KT 26/17 A3012 RMK A01 T02590169  RH  059%=      5-min Rain = 0
KFLS 140305Z 05007KT 26/17 A3012 RMK A01 T02570169  RH  059%=      5-min Rain = 0
KFLS 140310Z 05007KT 26/17 A3012 RMK A01 T02550169  RH  060%=      5-min Rain = 0
KFLS 140315Z 05007KT 25/17 A3012 RMK A01 T02540169  RH  061%=      5-min Rain = 0
KFLS 140320Z 06007KT 25/17 A3012 RMK A01 T02530169  RH  061%=      5-min Rain = 0
KFLS 140325Z 06008KT 25/17 A3012 RMK A01 T02540169  RH  061%=      5-min Rain = 0
KFLS 140330Z 06008KT 25/17 A3012 RMK A01 T02530169  RH  061%=      5-min Rain = 0
KFLS 140335Z 05007KT 25/17 A3013 RMK A01 T02530170  RH  061%=      5-min Rain = 0
KFLS 140340Z 05007KT 25/17 A3013 RMK A01 T02510170  RH  062%=      5-min Rain = 0
KFLS 140345Z 06007KT 25/17 A3014 RMK A01 T02500170  RH  063%=      5-min Rain = 0
KFLS 140350Z 06007KT 25/17 A3014 RMK A01 T02500171  RH  063%=      5-min Rain = 0
KFLS 140355Z 06007KT 25/17 A3014 RMK A01 T02490172  RH  064%=      5-min Rain = 0
KFLS 140400Z 06008KT 25/17 A3014 RMK A01 T02500174  RH  064%=      5-min Rain = 0
KFLS 140405Z 06008KT 25/18 A3014 RMK A01 T02500175  RH  064%=      5-min Rain = 0
KFLS 140410Z 06007KT 25/18 A3014 RMK A01 T02500175  RH  065%=      5-min Rain = 0
KFLS 140415Z 06007KT 25/18 A3014 RMK A01 T02490176  RH  065%=      5-min Rain = 0
KFLS 140420Z 05007KT 25/18 A3014 RMK A01 T02480175  RH  066%=      5-min Rain = 0
KFLS 140425Z 06006KT 25/18 A3014 RMK A01 T02470175  RH  066%=      5-min Rain = 0
KFLS 140430Z 05006KT 24/18 A3014 RMK A01 T02440175  RH  067%=      5-min Rain = 0
KFLS 140435Z 06006KT 24/18 A3014 RMK A01 T02420175  RH  068%=      5-min Rain = 0
KFLS 140440Z 06006KT 24/18 A3013 RMK A01 T02400176  RH  069%=      5-min Rain = 0
KFLS 140445Z 06007KT 24/18 A3013 RMK A01 T02390176  RH  069%=      5-min Rain = 0
KFLS 140450Z 07006KT 24/18 A3013 RMK A01 T02370176  RH  070%=      5-min Rain = 0
KFLS 140455Z 07006KT 24/18 A3013 RMK A01 T02350176  RH  071%=      5-min Rain = 0

Page generated in 0.0093 seconds.